»·PEaware :: SWA107 KSAN-KLAS

SWA107 :: KSAN-KLAS

FLIGHT INFORMATION

Flight Status: Arrived
Operator:
Southwest Airlines
More flights by this operator :: More flights under this callsign
Pilot: Diego M. (28112)
Aircraft: BOEING 737-700
(B737)
More flights by this aircraft type
Origin: KSAN San Diego Intl-Lindbergh
United States
Destination: KLAS McCarran Intl
United States
More flights between these airports :: More routes between these airports
Route: PADRZ2 CHKNN SEBBY YELAH MISEN KEPEC6
File this flight plan on PilotEdge
Remarks:
Altitude:
(Current/Filed)
290ft
Speed:
(Current/Filed)
400kts
Departed: 29-May-20 02:37 PM
Arrived: 29-May-20 03:28 PM
Distance/Time
Traveled:
225nm/0:50
Distance/Time
To Go:
Arrived

Flight Plot

Page will automatically refresh every two minutes.

Flight plan parsing failed; only flown route is shown


Map Options




Map Legend


Flown Route
Filed Route
Departure Airport
Arrival Airport
Navaid (VOR, NDB)
Fix

Horizontal Profiles

Position Reports

Time Latitude Longitude Heading Altitude Ground
Speed
29-May-20 14:08 32.733628 -117.197729 254 21ft 0kts
29-May-20 14:09 32.733628 -117.197729 254 21ft 0kts
29-May-20 14:10 32.733628 -117.197729 254 21ft 0kts
29-May-20 14:11 32.733628 -117.197729 254 21ft 0kts
29-May-20 14:12 32.733628 -117.197729 254 21ft 0kts
29-May-20 14:13 32.733628 -117.197729 254 21ft 0kts
29-May-20 14:14 32.733628 -117.197729 254 21ft 0kts
29-May-20 14:15 32.733628 -117.197729 254 21ft 0kts
29-May-20 14:16 32.733628 -117.197729 254 21ft 0kts
29-May-20 14:17 32.733628 -117.197729 254 21ft 0kts
29-May-20 14:18 32.733628 -117.197729 254 21ft 0kts
29-May-20 14:19 32.733628 -117.197729 254 21ft 0kts
29-May-20 14:20 32.733628 -117.197729 254 21ft 0kts
29-May-20 14:21 32.733628 -117.197729 254 21ft 0kts
29-May-20 14:22 32.733628 -117.197729 254 21ft 0kts
29-May-20 14:23 32.733628 -117.197729 254 21ft 0kts
29-May-20 14:24 32.733628 -117.197729 254 21ft 0kts
29-May-20 14:25 32.733730 -117.197255 257 21ft 2kts
29-May-20 14:26 32.733483 -117.197100 22 21ft 0kts
29-May-20 14:27 32.733483 -117.197100 22 21ft 0kts
29-May-20 14:28 32.733483 -117.197100 22 21ft 0kts
29-May-20 14:29 32.733483 -117.197100 22 21ft 0kts
29-May-20 14:30 32.733581 -117.197057 17 21ft 3kts
29-May-20 14:31 32.733258 -117.192713 107 21ft 25kts
29-May-20 14:32 32.731083 -117.183746 106 19ft 28kts
29-May-20 14:33 32.729506 -117.176759 75 23ft 0kts
29-May-20 14:34 32.729506 -117.176759 75 23ft 0kts
29-May-20 14:35 32.729506 -117.176759 75 23ft 0kts
29-May-20 14:36 32.730933 -117.178874 286 22ft 75kts
29-May-20 14:37 32.748360 -117.229865 299 2214ft 219kts
29-May-20 14:38 32.787643 -117.298236 300 5954ft 269kts
29-May-20 14:39 32.835098 -117.373529 302 9757ft 301kts
29-May-20 14:40 32.892028 -117.461809 303 12403ft 362kts
29-May-20 14:41 32.954980 -117.559733 303 15936ft 381kts
29-May-20 14:42 33.021231 -117.663140 303 19060ft 400kts
29-May-20 14:43 33.097758 -117.764693 316 21846ft 425kts
29-May-20 14:44 33.189248 -117.857126 316 23068ft 434kts
29-May-20 14:45 33.282970 -117.948782 318 23078ft 434kts
29-May-20 14:46 33.396436 -117.975909 15 24540ft 443kts
29-May-20 14:47 33.518757 -117.941174 16 26760ft 459kts
29-May-20 14:48 33.645329 -117.904926 16 28799ft 474kts
29-May-20 14:49 33.776618 -117.867202 15 29057ft 497kts
29-May-20 14:50 33.911214 -117.828479 15 29051ft 496kts
29-May-20 14:51 34.043001 -117.782450 25 29059ft 493kts
29-May-20 14:52 34.149836 -117.686320 52 29047ft 476kts
29-May-20 14:53 34.234871 -117.564880 55 29047ft 476kts
29-May-20 14:54 34.318921 -117.441457 55 29029ft 474kts
29-May-20 14:55 34.402768 -117.317964 56 29020ft 472kts
29-May-20 14:56 34.486691 -117.193931 56 29024ft 473kts
29-May-20 14:57 34.570429 -117.069712 55 29007ft 474kts
29-May-20 14:59 34.654754 -116.944191 54 28965ft 479kts
29-May-20 15:00 34.739567 -116.817499 54 28938ft 481kts
29-May-20 15:01 34.825682 -116.688384 54 28938ft 490kts
29-May-20 15:02 34.926942 -116.574084 40 28867ft 496kts
29-May-20 15:03 35.033924 -116.470538 40 25930ft 491kts
29-May-20 15:04 35.135104 -116.363250 48 23964ft 473kts
29-May-20 15:05 35.227599 -116.247093 48 23961ft 475kts
29-May-20 15:06 35.320512 -116.130354 48 23961ft 475kts
29-May-20 15:07 35.410776 -116.016534 48 22478ft 468kts
29-May-20 15:08 35.499871 -115.903869 48 18963ft 444kts
29-May-20 15:09 35.583422 -115.797791 49 16189ft 414kts
29-May-20 15:10 35.657728 -115.703183 49 13649ft 354kts
29-May-20 15:11 35.721031 -115.621919 48 13019ft 314kts
29-May-20 15:12 35.800333 -115.574038 8 13022ft 326kts
29-May-20 15:13 35.891779 -115.567980 4 13014ft 330kts
29-May-20 15:14 35.973669 -115.522233 51 13010ft 324kts
29-May-20 15:15 36.014314 -115.428637 72 12089ft 299kts
29-May-20 15:15 36.027693 -115.347106 95 10899ft 275kts
29-May-20 15:17 36.021490 -115.242354 100 9627ft 255kts
29-May-20 15:18 36.015322 -115.154668 99 9010ft 254kts
29-May-20 15:18 36.010586 -115.084593 99 8100ft 234kts
29-May-20 15:20 36.026655 -114.997248 39 8022ft 225kts
29-May-20 15:20 36.074174 -114.972756 8 8022ft 224kts
29-May-20 15:21 36.137258 -114.963503 7 7990ft 226kts
29-May-20 15:23 36.192889 -115.000363 286 6646ft 222kts
29-May-20 15:23 36.205079 -115.062103 248 4403ft 218kts
29-May-20 15:24 36.173402 -115.105238 219 4247ft 142kts
29-May-20 15:25 36.140821 -115.128400 202 2999ft 123kts
29-May-20 15:26 36.108848 -115.147527 202 2353ft 133kts
29-May-20 15:27 36.085847 -115.160777 201 2134ft 28kts
29-May-20 15:28 36.083079 -115.161153 167 2142ft 4kts
29-May-20 15:29 36.082918 -115.161091 162 2142ft 0kts
29-May-20 15:30 36.082918 -115.161091 162 2142ft 0kts
29-May-20 15:31 36.082754 -115.160696 92 2141ft 7kts
29-May-20 15:32 36.085361 -115.157089 149 2124ft 12kts
29-May-20 15:33 36.085026 -115.154807 48 2117ft 0kts

Navigation Log

Ident Type
Flight plan parsing failed, navigation log unavailable